Time;durP1;ratioP1;P1;durP2;ratioP2;P2;SDS_P1;SDS_P2;PMS_P1;PMS_P2;Temp;Humidity;BMP_temperature;BMP_pressure;BME280_temperature;BME280_humidity;BME280_pressure;Samples;Min_cycle;Max_cycle;Signal;HPM_P1;HPM_P2
2024/04/13 00:01:57;;;;;;;;;;;;;;;21.59;44.23;102536.75;5396605;26;19940;-67
2024/04/13 00:04:23;;;;;;;;;;;;;;;21.60;44.11;102540.22;5390737;26;19977;-68
2024/04/13 00:06:50;;;;;;;;;;;;;;;21.56;44.22;102529.09;5390216;26;19975;-69
2024/04/13 00:09:16;;;;;;;;;;;;;;;21.61;44.33;102524.16;5387142;26;19941;-68
2024/04/13 00:11:42;;;;;;;;;;;;;;;21.63;44.25;102521.38;5387757;26;19941;-68
2024/04/13 00:14:07;;;;;;;;;;;;;;;21.61;44.55;102518.03;5407397;26;19935;-68
2024/04/13 00:16:34;;;;;;;;;;;;;;;21.56;44.24;102513.19;5392222;26;19940;-68
2024/04/13 00:19:00;;;;;;;;;;;;;;;21.57;44.65;102514.84;5389043;26;19937;-68
2024/04/13 00:21:26;;;;;;;;;;;;;;;21.61;44.54;102521.53;5396574;26;20008;-68
2024/04/13 00:23:52;;;;;;;;;;;;;;;21.62;44.29;102517.06;5383948;26;19949;-68
2024/04/13 00:26:18;;;;;;;;;;;;;;;21.60;44.49;102519.03;5382173;26;19938;-68
2024/04/13 00:28:44;;;;;;;;;;;;;;;21.52;44.47;102511.81;5433342;26;20003;-69
2024/04/13 00:31:11;;;;;;;;;;;;;;;21.55;44.32;102511.53;5388236;26;19938;-68
2024/04/13 00:33:38;;;;;;;;;;;;;;;21.56;44.72;102507.06;5398784;26;20824;-68
2024/04/13 00:36:05;;;;;;;;;;;;;;;21.60;44.03;102511.06;5397898;26;19953;-69
2024/04/13 00:38:31;;;;;;;;;;;;;;;21.57;44.21;102504.25;5401978;26;19941;-68
2024/04/13 00:40:56;;;;;;;;;;;;;;;21.57;44.65;102503.44;5386670;26;20002;-68
2024/04/13 00:43:22;;;;;;;;;;;;;;;21.50;44.27;102503.16;5390908;26;20008;-68
2024/04/13 00:45:48;;;;;;;;;;;;;;;21.52;44.44;102503.84;5396929;26;19980;-68
2024/04/13 00:48:14;;;;;;;;;;;;;;;21.55;44.65;102505.41;5412302;26;20064;-69
2024/04/13 00:50:48;;;;;;;;;;;;;;;21.57;44.37;102496.31;5403119;26;19979;-68
2024/04/13 00:53:16;;;;;;;;;;;;;;;21.53;44.24;102500.22;5390807;26;20338;-68
2024/04/13 00:55:43;;;;;;;;;;;;;;;21.51;44.73;102504.84;5388570;26;20321;-69
2024/04/13 00:58:10;;;;;;;;;;;;;;;21.51;44.21;102498.69;5393571;26;19929;-69
2024/04/13 01:00:37;;;;;;;;;;;;;;;21.52;44.27;102493.25;5401874;26;19990;-68
2024/04/13 01:03:03;;;;;;;;;;;;;;;21.50;44.47;102492.56;5397903;26;20564;-68
2024/04/13 01:05:30;;;;;;;;;;;;;;;21.49;44.72;102490.06;5404159;26;20269;-68
2024/04/13 01:07:55;;;;;;;;;;;;;;;21.57;44.15;102490.16;5396862;26;19929;-68
2024/04/13 01:10:22;;;;;;;;;;;;;;;21.56;44.36;102494.63;5386915;26;19929;-69
2024/04/13 01:12:49;;;;;;;;;;;;;;;21.50;44.49;102487.28;5397747;26;20334;-69
2024/04/13 01:15:17;;;;;;;;;;;;;;;21.44;44.53;102481.75;5392912;26;20484;-68
2024/04/13 01:17:43;;;;;;;;;;;;;;;21.50;44.11;102492.56;5390422;26;19943;-69
2024/04/13 01:20:10;;;;;;;;;;;;;;;21.49;44.21;102487.41;5396058;26;20043;-68
2024/04/13 01:22:43;;;;;;;;;;;;;;;21.48;44.65;102486.59;5397300;26;19949;-69
2024/04/13 01:25:10;;;;;;;;;;;;;;;21.46;44.27;102487.72;5397343;26;19937;-69
2024/04/13 01:27:36;;;;;;;;;;;;;;;21.53;44.36;102489.63;5390562;26;19929;-68
2024/04/13 01:30:02;;;;;;;;;;;;;;;21.44;44.87;102479.09;5399655;26;19929;-69
2024/04/13 01:32:28;;;;;;;;;;;;;;;21.48;44.25;102481.28;5400262;26;20767;-68
2024/04/13 01:34:54;;;;;;;;;;;;;;;21.45;44.39;102486.91;5390589;26;19948;-69
2024/04/13 01:37:20;;;;;;;;;;;;;;;21.51;44.42;102485.44;5410079;26;20011;-68
2024/04/13 01:39:46;;;;;;;;;;;;;;;21.44;44.72;102487.03;5384975;26;20266;-68
2024/04/13 01:42:11;;;;;;;;;;;;;;;21.46;44.64;102482.44;5387554;26;19929;-68
2024/04/13 01:44:38;;;;;;;;;;;;;;;21.44;44.62;102487.88;5402119;26;19998;-68
2024/04/13 01:47:05;;;;;;;;;;;;;;;21.47;44.70;102479.63;5393899;26;19935;-68
2024/04/13 01:49:31;;;;;;;;;;;;;;;21.42;44.40;102480.09;5390983;26;19940;-68
2024/04/13 01:51:56;;;;;;;;;;;;;;;21.45;44.46;102480.75;5395419;26;20017;-68
2024/04/13 01:54:22;;;;;;;;;;;;;;;21.42;44.38;102482.72;5396386;26;20012;-67
2024/04/13 01:56:48;;;;;;;;;;;;;;;21.48;44.13;102491.06;5402696;26;20809;-68
2024/04/13 01:59:14;;;;;;;;;;;;;;;21.42;44.50;102485.38;5391975;26;20396;-69
2024/04/13 02:01:39;;;;;;;;;;;;;;;21.45;44.74;102478.09;5388849;26;19996;-68
2024/04/13 02:04:06;;;;;;;;;;;;;;;21.37;44.67;102469.09;5397461;26;19949;-68
2024/04/13 02:06:31;;;;;;;;;;;;;;;21.45;44.29;102471.00;5384991;26;19940;-68
2024/04/13 02:08:57;;;;;;;;;;;;;;;21.39;44.85;102471.59;5396845;26;20081;-68
2024/04/13 02:11:23;;;;;;;;;;;;;;;21.46;44.31;102477.13;5392880;26;19941;-68
2024/04/13 02:13:49;;;;;;;;;;;;;;;21.41;44.47;102467.81;5394094;26;19942;-68
2024/04/13 02:16:15;;;;;;;;;;;;;;;21.40;44.54;102458.19;5398050;26;21733;-69
2024/04/13 02:18:40;;;;;;;;;;;;;;;21.42;44.54;102450.09;5394707;26;19937;-68
2024/04/13 02:21:06;;;;;;;;;;;;;;;21.42;44.59;102455.41;5399095;26;19928;-68
2024/04/13 02:23:32;;;;;;;;;;;;;;;21.41;44.33;102459.88;5385113;26;19969;-68
2024/04/13 02:26:00;;;;;;;;;;;;;;;21.41;44.14;102475.78;5389277;26;19936;-68
2024/04/13 02:28:25;;;;;;;;;;;;;;;21.44;44.16;102473.78;5395190;26;20602;-68
2024/04/13 02:30:51;;;;;;;;;;;;;;;21.41;44.48;102480.22;5399996;26;19983;-68
2024/04/13 02:33:17;;;;;;;;;;;;;;;21.42;44.60;102479.25;5396725;26;20004;-69
2024/04/13 02:35:43;;;;;;;;;;;;;;;21.35;44.60;102478.16;5388181;26;19937;-68
2024/04/13 02:38:08;;;;;;;;;;;;;;;21.39;44.51;102484.84;5385390;26;19946;-67
2024/04/13 02:40:35;;;;;;;;;;;;;;;21.39;44.38;102477.75;5398982;26;19949;-67
2024/04/13 02:43:01;;;;;;;;;;;;;;;21.37;44.70;102476.22;5384683;26;19929;-66
2024/04/13 02:45:27;;;;;;;;;;;;;;;21.36;44.72;102467.44;5400659;26;19998;-67
2024/04/13 02:47:52;;;;;;;;;;;;;;;21.39;44.46;102468.94;5387772;26;20039;-68
2024/04/13 02:50:18;;;;;;;;;;;;;;;21.36;44.19;102469.22;5409356;26;19938;-68
2024/04/13 02:52:44;;;;;;;;;;;;;;;21.36;44.43;102464.78;5403098;26;20003;-67
2024/04/13 02:55:10;;;;;;;;;;;;;;;21.38;44.54;102472.59;5403438;26;19930;-66
2024/04/13 02:57:36;;;;;;;;;;;;;;;21.40;44.39;102470.63;5392888;26;20019;-67
2024/04/13 03:00:03;;;;;;;;;;;;;;;21.33;44.59;102462.41;5401439;26;20372;-68
2024/04/13 03:02:29;;;;;;;;;;;;;;;21.34;44.28;102471.19;5396068;26;21538;-67
2024/04/13 03:04:55;;;;;;;;;;;;;;;21.38;44.70;102470.78;5395075;26;20336;-66
2024/04/13 03:07:20;;;;;;;;;;;;;;;21.36;44.38;102472.75;5390682;26;19944;-67
2024/04/13 03:09:50;;;;;;;;;;;;;;;21.38;44.20;102470.78;5405932;26;19929;-67
2024/04/13 03:12:15;;;;;;;;;;;;;;;21.35;44.40;102473.69;5366025;26;19937;-67
2024/04/13 03:14:44;;;;;;;;;;;;;;;21.35;44.28;102471.03;5397201;26;19929;-68
2024/04/13 03:17:10;;;;;;;;;;;;;;;21.37;44.18;102474.41;5386389;26;19989;-68
2024/04/13 03:19:36;;;;;;;;;;;;;;;21.40;44.62;102479.41;5390909;26;19929;-68
2024/04/13 03:22:02;;;;;;;;;;;;;;;21.33;44.58;102472.19;5389321;26;19930;-68
2024/04/13 03:24:28;;;;;;;;;;;;;;;21.39;44.56;102479.56;5403180;26;21568;-68
2024/04/13 03:26:54;;;;;;;;;;;;;;;21.36;44.29;102467.44;5395859;26;19944;-68
2024/04/13 03:29:19;;;;;;;;;;;;;;;21.32;44.52;102463.41;5400733;26;19948;-68
2024/04/13 03:31:47;;;;;;;;;;;;;;;21.34;44.67;102466.72;5397470;26;19995;-68
2024/04/13 03:34:13;;;;;;;;;;;;;;;21.32;44.68;102452.81;5394273;26;19929;-68
2024/04/13 03:36:40;;;;;;;;;;;;;;;21.29;44.57;102458.41;5399540;26;20030;-66
2024/04/13 03:39:06;;;;;;;;;;;;;;;21.30;44.56;102457.44;5388299;26;19941;-67
2024/04/13 03:41:32;;;;;;;;;;;;;;;21.32;44.43;102452.81;5394747;26;19941;-68
2024/04/13 03:43:57;;;;;;;;;;;;;;;21.32;44.33;102447.50;5389607;26;19941;-68
2024/04/13 03:46:23;;;;;;;;;;;;;;;21.27;44.25;102460.38;5393277;26;19937;-67
2024/04/13 03:48:49;;;;;;;;;;;;;;;21.26;44.89;102463.19;5389545;26;19941;-69
2024/04/13 03:51:15;;;;;;;;;;;;;;;21.26;44.44;102458.72;5398896;26;20733;-68
2024/04/13 03:53:41;;;;;;;;;;;;;;;21.22;44.42;102465.28;5403098;26;20024;-69
2024/04/13 03:56:07;;;;;;;;;;;;;;;21.34;44.15;102463.25;5401012;26;19992;-68
2024/04/13 03:58:33;;;;;;;;;;;;;;;21.31;44.69;102459.09;5388509;26;19929;-68
2024/04/13 04:00:59;;;;;;;;;;;;;;;21.32;44.78;102457.28;5390490;26;20704;-68
2024/04/13 04:03:25;;;;;;;;;;;;;;;21.30;44.52;102452.13;5403575;26;19979;-68
2024/04/13 04:05:51;;;;;;;;;;;;;;;21.30;44.23;102462.72;5395628;26;20003;-68
2024/04/13 04:08:18;;;;;;;;;;;;;;;21.28;44.28;102461.22;5401442;26;19929;-68
2024/04/13 04:10:44;;;;;;;;;;;;;;;21.23;44.53;102461.63;5389589;26;19928;-69
2024/04/13 04:13:10;;;;;;;;;;;;;;;21.25;44.52;102461.50;5401070;26;19940;-68
2024/04/13 04:15:36;;;;;;;;;;;;;;;21.27;44.51;102473.63;5399532;26;19996;-68
2024/04/13 04:18:05;;;;;;;;;;;;;;;21.25;44.54;102472.13;5401110;26;20446;-68
2024/04/13 04:20:31;;;;;;;;;;;;;;;21.25;44.68;102477.41;5398480;26;20245;-68
2024/04/13 04:22:57;;;;;;;;;;;;;;;21.25;44.48;102480.91;5398099;26;19941;-68
2024/04/13 04:25:24;;;;;;;;;;;;;;;21.20;44.74;102480.47;5406723;26;19935;-68
2024/04/13 04:27:50;;;;;;;;;;;;;;;21.27;44.45;102476.28;5388890;26;19965;-68
2024/04/13 04:30:16;;;;;;;;;;;;;;;21.23;44.53;102479.34;5390406;26;19928;-68
2024/04/13 04:32:42;;;;;;;;;;;;;;;21.27;44.16;102464.84;5399018;26;19936;-67
2024/04/13 04:35:08;;;;;;;;;;;;;;;21.21;44.43;102476.03;5400438;26;19998;-67
2024/04/13 04:37:34;;;;;;;;;;;;;;;21.23;44.86;102461.63;5392818;26;19937;-68
2024/04/13 04:40:04;;;;;;;;;;;;;;;21.22;44.37;102459.97;5399405;26;19942;-68
2024/04/13 04:42:30;;;;;;;;;;;;;;;21.20;44.27;102459.28;5391954;26;19989;-68
2024/04/13 04:44:56;;;;;;;;;;;;;;;21.23;44.69;102466.94;5400036;26;20832;-68
2024/04/13 04:47:21;;;;;;;;;;;;;;;21.20;44.76;102461.94;5393402;26;19940;-69
2024/04/13 04:49:47;;;;;;;;;;;;;;;21.23;44.72;102459.00;5391174;26;19995;-68
2024/04/13 04:52:13;;;;;;;;;;;;;;;21.21;44.27;102455.66;5400215;26;19976;-68
2024/04/13 04:54:39;;;;;;;;;;;;;;;21.19;44.56;102459.44;5395678;26;20632;-69
2024/04/13 04:57:05;;;;;;;;;;;;;;;21.17;44.70;102458.72;5388331;26;19934;-68
2024/04/13 04:59:31;;;;;;;;;;;;;;;21.15;44.73;102460.69;5398190;26;19940;-68
2024/04/13 05:01:57;;;;;;;;;;;;;;;21.18;44.86;102461.22;5391675;26;20322;-68
2024/04/13 05:04:24;;;;;;;;;;;;;;;21.20;44.77;102464.59;5391651;26;19929;-68
2024/04/13 05:06:49;;;;;;;;;;;;;;;21.12;44.97;102467.97;5384866;26;19968;-68
2024/04/13 05:09:15;;;;;;;;;;;;;;;21.18;44.81;102463.88;5378819;26;20339;-68
2024/04/13 05:11:41;;;;;;;;;;;;;;;21.13;44.49;102474.09;5379620;26;19944;-68
2024/04/13 05:14:09;;;;;;;;;;;;;;;21.08;44.76;102463.94;5391673;26;19932;-68
2024/04/13 05:16:35;;;;;;;;;;;;;;;21.15;44.95;102466.00;5394840;26;19948;-69
2024/04/13 05:19:03;;;;;;;;;;;;;;;21.13;44.35;102463.50;5384726;26;20685;-68
2024/04/13 05:21:29;;;;;;;;;;;;;;;21.17;44.66;102471.97;5389919;26;19940;-68
2024/04/13 05:23:55;;;;;;;;;;;;;;;21.13;44.49;102464.34;5389198;26;19929;-68
2024/04/13 05:26:21;;;;;;;;;;;;;;;21.10;44.94;102461.97;5381304;26;20003;-68
2024/04/13 05:28:47;;;;;;;;;;;;;;;21.09;44.83;102446.25;5391722;26;19937;-69
2024/04/13 05:31:13;;;;;;;;;;;;;;;21.09;45.05;102452.38;5391910;26;19929;-68
2024/04/13 05:33:39;;;;;;;;;;;;;;;21.08;44.74;102453.34;5389761;26;20354;-69
2024/04/13 05:36:05;;;;;;;;;;;;;;;21.09;44.36;102454.19;5398761;26;19929;-68
2024/04/13 05:38:31;;;;;;;;;;;;;;;21.06;44.95;102463.28;5389843;26;20253;-68
2024/04/13 05:40:57;;;;;;;;;;;;;;;21.10;44.43;102464.63;5395420;26;19936;-68
2024/04/13 05:43:23;;;;;;;;;;;;;;;21.08;44.40;102461.31;5390521;26;20249;-69
2024/04/13 05:45:49;;;;;;;;;;;;;;;21.06;44.54;102465.91;5387285;26;19941;-69
2024/04/13 05:48:15;;;;;;;;;;;;;;;21.09;44.73;102456.84;5400284;26;20049;-68
2024/04/13 05:50:41;;;;;;;;;;;;;;;21.08;44.84;102463.13;5404815;26;19928;-68
2024/04/13 05:53:06;;;;;;;;;;;;;;;21.06;45.18;102465.91;5399293;26;20600;-68
2024/04/13 05:55:35;;;;;;;;;;;;;;;21.02;44.80;102461.91;5402725;26;19937;-69
2024/04/13 05:58:02;;;;;;;;;;;;;;;21.05;44.78;102474.03;5388237;26;19957;-69
2024/04/13 06:00:28;;;;;;;;;;;;;;;21.06;44.93;102465.91;5394583;26;19929;-68
2024/04/13 06:02:54;;;;;;;;;;;;;;;21.05;44.75;102466.06;5399678;26;20336;-67
2024/04/13 06:05:20;;;;;;;;;;;;;;;21.09;44.84;102462.97;5396067;26;19933;-67
2024/04/13 06:07:46;;;;;;;;;;;;;;;21.10;44.33;102472.59;5398148;26;20435;-68
2024/04/13 06:10:11;;;;;;;;;;;;;;;21.08;44.67;102471.06;5392631;26;19949;-68
2024/04/13 06:12:37;;;;;;;;;;;;;;;21.09;44.37;102478.03;5393694;26;19996;-67
2024/04/13 06:15:03;;;;;;;;;;;;;;;21.06;44.80;102480.97;5391807;26;19929;-69
2024/04/13 06:17:29;;;;;;;;;;;;;;;21.06;45.12;102476.50;5387931;26;19940;-68
2024/04/13 06:19:55;;;;;;;;;;;;;;;21.07;45.00;102480.00;5400094;26;20308;-66
2024/04/13 06:22:23;;;;;;;;;;;;;;;21.09;44.79;102478.88;5399670;26;19936;-68
2024/04/13 06:24:52;;;;;;;;;;;;;;;21.09;44.92;102484.16;5392842;26;19929;-68
2024/04/13 06:27:18;;;;;;;;;;;;;;;21.13;44.52;102479.38;5394887;26;20289;-69
2024/04/13 06:29:48;;;;;;;;;;;;;;;21.10;44.85;102485.00;5396820;26;19937;-67
2024/04/13 06:32:14;;;;;;;;;;;;;;;21.08;44.89;102486.97;5398174;26;19939;-68
2024/04/13 06:34:40;;;;;;;;;;;;;;;21.10;44.26;102485.81;5379268;26;20774;-69
2024/04/13 06:37:06;;;;;;;;;;;;;;;21.15;44.95;102477.44;5392003;26;19937;-68
2024/04/13 06:39:32;;;;;;;;;;;;;;;21.08;45.11;102477.19;5397518;26;19929;-67
2024/04/13 06:41:58;;;;;;;;;;;;;;;21.12;44.83;102486.50;5386722;26;19941;-70
2024/04/13 06:44:24;;;;;;;;;;;;;;;21.15;44.99;102477.44;5390139;26;19965;-67
2024/04/13 06:46:52;;;;;;;;;;;;;;;21.12;44.46;102472.44;5389593;26;20072;-68
2024/04/13 06:49:19;;;;;;;;;;;;;;;21.40;44.14;102474.09;5397373;26;19948;-70
2024/04/13 06:51:45;;;;;;;;;;;;;;;21.73;43.49;102473.59;5394544;26;20592;-69
2024/04/13 06:54:11;;;;;;;;;;;;;;;22.27;42.70;102476.00;5388440;26;19995;-67
2024/04/13 06:56:36;;;;;;;;;;;;;;;22.55;42.03;102465.22;5391081;26;20219;-67
2024/04/13 06:59:03;;;;;;;;;;;;;;;22.61;41.97;102465.41;5383270;26;19975;-67
2024/04/13 07:01:29;;;;;;;;;;;;;;;22.65;41.87;102465.09;5382285;26;19929;-67
2024/04/13 07:03:56;;;;;;;;;;;;;;;22.58;41.90;102456.91;5392543;26;19935;-66
2024/04/13 07:06:23;;;;;;;;;;;;;;;22.53;42.12;102464.53;5384765;26;19996;-66
2024/04/13 07:08:49;;;;;;;;;;;;;;;22.49;42.45;102453.41;5386307;26;20611;-67
2024/04/13 07:11:15;;;;;;;;;;;;;;;22.41;42.64;102461.31;5391132;26;19938;-68
2024/04/13 07:13:41;;;;;;;;;;;;;;;22.38;42.80;102461.63;5394606;26;19936;-68
2024/04/13 07:16:07;;;;;;;;;;;;;;;22.33;42.89;102477.19;5390428;26;20366;-67
2024/04/13 07:18:32;;;;;;;;;;;;;;;22.34;42.73;102462.94;5387174;26;19995;-66
2024/04/13 07:20:58;;;;;;;;;;;;;;;22.33;42.84;102461.28;5387971;26;19928;-67
2024/04/13 07:23:24;;;;;;;;;;;;;;;22.31;42.83;102457.94;5392661;26;20120;-67
2024/04/13 07:26:00;;;;;;;;;;;;;;;22.31;42.83;102458.78;5394135;26;19966;-67
2024/04/13 07:28:26;;;;;;;;;;;;;;;22.31;42.98;102456.13;5382965;26;19944;-66
2024/04/13 07:30:52;;;;;;;;;;;;;;;22.27;43.21;102460.09;5392614;26;19952;-66
2024/04/13 07:33:17;;;;;;;;;;;;;;;22.27;42.95;102448.66;5387260;26;20059;-67
2024/04/13 07:35:43;;;;;;;;;;;;;;;22.26;42.80;102457.56;5385958;26;19999;-66
2024/04/13 07:38:09;;;;;;;;;;;;;;;22.29;43.00;102447.50;5387989;26;19934;-66
2024/04/13 07:40:35;;;;;;;;;;;;;;;22.25;43.20;102447.94;5385151;26;19928;-68
2024/04/13 07:43:01;;;;;;;;;;;;;;;22.22;43.28;102453.56;5384357;26;20007;-66
2024/04/13 07:45:27;;;;;;;;;;;;;;;22.23;43.07;102452.56;5385613;26;19928;-67
2024/04/13 07:47:53;;;;;;;;;;;;;;;22.20;42.93;102445.75;5377564;26;19936;-66
2024/04/13 07:50:18;;;;;;;;;;;;;;;22.21;43.25;102442.13;5391392;26;19929;-67
2024/04/13 07:52:46;;;;;;;;;;;;;;;22.18;43.07;102428.34;5387615;26;19995;-67
2024/04/13 07:55:11;;;;;;;;;;;;;;;22.09;43.14;102426.66;5397837;26;19933;-66
2024/04/13 07:57:37;;;;;;;;;;;;;;;22.18;43.33;102441.59;5392406;26;20014;-66
2024/04/13 08:00:04;;;;;;;;;;;;;;;22.17;43.09;102438.13;5388148;26;19994;-67
2024/04/13 08:02:37;;;;;;;;;;;;;;;22.18;43.00;102426.53;5392377;26;21794;-66
2024/04/13 08:05:03;;;;;;;;;;;;;;;22.19;43.19;102446.75;5391517;26;19929;-66
2024/04/13 08:07:28;;;;;;;;;;;;;;;22.21;42.95;102433.34;5397139;26;19929;-67
2024/04/13 08:09:54;;;;;;;;;;;;;;;22.22;43.15;102438.47;5393142;26;19928;-66
2024/04/13 08:12:20;;;;;;;;;;;;;;;22.19;43.28;102435.31;5388809;26;19936;-67
2024/04/13 08:14:46;;;;;;;;;;;;;;;22.17;43.25;102435.47;5388675;26;19937;-66
2024/04/13 08:17:13;;;;;;;;;;;;;;;22.24;43.18;102425.88;5384898;26;20301;-66
2024/04/13 08:19:39;;;;;;;;;;;;;;;22.20;43.12;102429.00;5391436;26;19933;-67
2024/04/13 08:22:06;;;;;;;;;;;;;;;22.20;43.30;102427.19;5382068;26;19936;-66
2024/04/13 08:24:32;;;;;;;;;;;;;;;22.23;43.05;102421.56;5390167;26;19929;-67
2024/04/13 08:26:57;;;;;;;;;;;;;;;22.22;43.05;102421.72;5384299;26;20393;-66
2024/04/13 08:29:23;;;;;;;;;;;;;;;22.23;43.39;102418.09;5387209;26;19941;-67
2024/04/13 08:31:50;;;;;;;;;;;;;;;22.21;43.40;102420.91;5385810;26;20020;-67
2024/04/13 08:34:18;;;;;;;;;;;;;;;22.21;43.22;102418.25;5396391;26;19940;-67
2024/04/13 08:36:44;;;;;;;;;;;;;;;22.20;43.14;102418.41;5381770;26;20338;-67
2024/04/13 08:39:09;;;;;;;;;;;;;;;22.22;43.54;102411.09;5384453;26;20225;-66
2024/04/13 08:41:37;;;;;;;;;;;;;;;22.18;43.77;102407.94;5388525;26;19978;-66
2024/04/13 08:44:03;;;;;;;;;;;;;;;22.20;43.58;102402.47;5383823;26;19940;-68
2024/04/13 08:46:34;;;;;;;;;;;;;;;22.16;43.26;102404.63;5391120;26;20184;-66
2024/04/13 08:49:02;;;;;;;;;;;;;;;22.19;43.44;102412.25;5392665;26;19937;-66
2024/04/13 08:51:30;;;;;;;;;;;;;;;22.22;43.52;102405.81;5383943;26;20392;-66
2024/04/13 08:53:55;;;;;;;;;;;;;;;22.16;43.61;102417.06;5386689;26;20230;-67
2024/04/13 08:56:23;;;;;;;;;;;;;;;22.15;43.68;102404.78;5387164;26;19941;-66
2024/04/13 08:58:51;;;;;;;;;;;;;;;22.16;43.48;102388.69;5385686;26;20722;-67
2024/04/13 09:01:20;;;;;;;;;;;;;;;22.18;43.27;102384.06;5388600;26;20400;-66
2024/04/13 09:03:47;;;;;;;;;;;;;;;22.17;43.62;102387.72;5386113;26;20446;-66
2024/04/13 09:06:12;;;;;;;;;;;;;;;22.18;43.58;102386.72;5383488;26;19979;-67
2024/04/13 09:08:40;;;;;;;;;;;;;;;22.18;43.29;102384.06;5398197;26;19933;-66
2024/04/13 09:11:08;;;;;;;;;;;;;;;22.18;43.38;102383.25;5388591;26;20408;-67
2024/04/13 09:13:35;;;;;;;;;;;;;;;22.18;43.37;102384.06;5387765;26;20621;-66
2024/04/13 09:16:01;;;;;;;;;;;;;;;22.15;43.52;102373.78;5394957;26;19966;-67
2024/04/13 09:18:27;;;;;;;;;;;;;;;22.18;43.25;102385.88;5388882;26;19969;-65
2024/04/13 09:20:54;;;;;;;;;;;;;;;22.18;43.29;102362.84;5388296;26;20341;-66
2024/04/13 09:23:19;;;;;;;;;;;;;;;22.16;43.53;102367.47;5394551;26;19930;-67
2024/04/13 09:25:45;;;;;;;;;;;;;;;22.14;43.46;102377.41;5391711;26;20002;-67
2024/04/13 09:28:12;;;;;;;;;;;;;;;22.13;43.40;102377.59;5397344;26;19941;-66
2024/04/13 09:30:39;;;;;;;;;;;;;;;22.21;43.41;102370.47;5386408;26;19941;-66
2024/04/13 09:33:10;;;;;;;;;;;;;;;22.13;43.50;102369.63;5399594;26;19942;-67
2024/04/13 09:35:36;;;;;;;;;;;;;;;22.15;43.35;102367.63;5407025;26;21660;-66
2024/04/13 09:38:03;;;;;;;;;;;;;;;22.16;43.38;102369.31;5379961;26;20376;-66
2024/04/13 09:40:30;;;;;;;;;;;;;;;22.15;43.38;102367.63;5390408;26;20282;-66
2024/04/13 09:42:57;;;;;;;;;;;;;;;22.11;43.74;102359.16;5390607;26;19941;-67
2024/04/13 09:45:23;;;;;;;;;;;;;;;22.16;43.51;102361.34;5405519;26;19941;-66
2024/04/13 09:47:51;;;;;;;;;;;;;;;22.10;43.74;102349.56;5390142;26;20361;-66
2024/04/13 09:50:18;;;;;;;;;;;;;;;22.13;43.81;102346.56;5425244;26;19929;-66
2024/04/13 09:52:44;;;;;;;;;;;;;;;22.14;43.47;102355.38;5388314;26;20537;-66
2024/04/13 09:55:10;;;;;;;;;;;;;;;22.12;43.83;102355.53;5399807;26;19941;-65
2024/04/13 09:57:36;;;;;;;;;;;;;;;22.16;44.01;102345.41;5387148;26;20007;-66
2024/04/13 10:00:02;;;;;;;;;;;;;;;22.16;43.77;102345.41;5412139;26;19933;-67
2024/04/13 10:02:31;;;;;;;;;;;;;;;22.11;43.84;102343.25;5395725;26;19935;-67
2024/04/13 10:04:57;;;;;;;;;;;;;;;22.15;43.77;102341.09;5382226;26;19940;-67
2024/04/13 10:07:24;;;;;;;;;;;;;;;22.19;43.57;102342.44;5396632;26;20675;-67
2024/04/13 10:09:55;;;;;;;;;;;;;;;22.13;43.70;102338.63;5400193;26;19928;-67
2024/04/13 10:12:23;;;;;;;;;;;;;;;22.16;43.54;102335.63;5380091;26;19930;-68
2024/04/13 10:14:51;;;;;;;;;;;;;;;22.16;43.34;102326.84;5385295;26;19948;-67
2024/04/13 10:17:17;;;;;;;;;;;;;;;22.15;43.67;102327.84;5386546;26;19959;-68
2024/04/13 10:19:47;;;;;;;;;;;;;;;22.16;43.46;102324.19;5388379;26;19936;-67
2024/04/13 10:22:13;;;;;;;;;;;;;;;22.14;43.48;102329.66;5391175;26;19981;-67
2024/04/13 10:24:44;;;;;;;;;;;;;;;22.13;43.63;102324.53;5389837;26;19969;-66
2024/04/13 10:27:11;;;;;;;;;;;;;;;22.14;43.61;102320.88;5389131;26;19991;-65
2024/04/13 10:29:40;;;;;;;;;;;;;;;22.12;43.51;102325.50;5400150;26;19936;-65
2024/04/13 10:32:22;;;;;;;;;;;;;;;22.15;43.45;102311.91;5390418;26;19934;-67
2024/04/13 10:34:49;;;;;;;;;;;;;;;22.16;43.62;102292.34;5385266;26;19937;-68
2024/04/13 10:37:33;;;;;;;;;;;;;;;22.19;43.39;102289.38;5382879;26;19944;-67
2024/04/13 10:40:00;;;;;;;;;;;;;;;22.14;43.67;102286.38;5387923;26;20318;-67
2024/04/13 10:42:35;;;;;;;;;;;;;;;22.14;43.56;102284.56;5383757;26;19937;-68
2024/04/13 10:45:08;;;;;;;;;;;;;;;22.28;43.46;102289.25;5391392;26;20346;-68
2024/04/13 10:47:34;;;;;;;;;;;;;;;22.10;44.10;102299.13;5390911;26;19995;-67
2024/04/13 10:50:00;;;;;;;;;;;;;;;21.89;44.56;102288.03;5389944;26;19928;-67
2024/04/13 10:52:26;;;;;;;;;;;;;;;22.01;44.53;102286.78;5393388;26;20735;-69
2024/04/13 10:54:55;;;;;;;;;;;;;;;21.87;44.54;102282.06;5387926;26;19945;-67
2024/04/13 10:57:21;;;;;;;;;;;;;;;22.28;43.82;102278.66;5338335;26;19929;-65
2024/04/13 10:59:48;;;;;;;;;;;;;;;22.34;43.54;102263.91;5391712;26;20003;-67
2024/04/13 11:02:14;;;;;;;;;;;;;;;22.45;43.12;102265.44;5397750;26;20342;-64
2024/04/13 11:04:47;;;;;;;;;;;;;;;22.51;43.02;102273.56;5401055;26;19941;-64
2024/04/13 11:07:13;;;;;;;;;;;;;;;22.51;43.16;102280.69;5386509;26;19929;-61
2024/04/13 11:09:42;;;;;;;;;;;;;;;22.57;42.84;102270.25;5388959;26;19995;-61
2024/04/13 11:12:08;;;;;;;;;;;;;;;22.54;43.08;102283.84;5337843;26;19975;-73
2024/04/13 11:14:34;;;;;;;;;;;;;;;22.56;43.09;102278.38;5378643;26;20533;-77
2024/04/13 11:17:00;;;;;;;;;;;;;;;22.55;43.43;102271.41;5353352;26;19944;-75
2024/04/13 11:19:25;;;;;;;;;;;;;;;22.51;43.53;102267.41;5405931;26;20003;-73
2024/04/13 11:21:52;;;;;;;;;;;;;;;22.52;43.31;102269.91;5370386;26;19941;-64
2024/04/13 11:24:18;;;;;;;;;;;;;;;22.54;43.38;102256.47;5391560;26;19936;-64
2024/04/13 11:26:47;;;;;;;;;;;;;;;22.54;43.31;102259.13;5336274;26;19945;-66
2024/04/13 11:29:12;;;;;;;;;;;;;;;22.54;43.28;102261.78;5402671;26;19940;-66
2024/04/13 11:31:38;;;;;;;;;;;;;;;22.53;43.21;102242.38;5331995;26;20389;-64
2024/04/13 11:34:04;;;;;;;;;;;;;;;22.57;43.28;102254.31;5406232;26;19941;-64
2024/04/13 11:36:30;;;;;;;;;;;;;;;22.57;43.19;102253.47;5333232;26;19929;-62
2024/04/13 11:38:57;;;;;;;;;;;;;;;22.55;43.34;102261.63;5390177;26;20067;-63
2024/04/13 11:41:23;;;;;;;;;;;;;;;22.55;43.17;102227.09;5388944;26;20011;-62
2024/04/13 11:43:55;;;;;;;;;;;;;;;22.58;43.56;102228.59;5329437;26;19961;-64
2024/04/13 11:46:21;;;;;;;;;;;;;;;22.58;43.43;102215.31;5398604;26;19932;-64
2024/04/13 11:48:48;;;;;;;;;;;;;;;22.60;43.41;102224.78;5328830;26;19939;-64
2024/04/13 11:51:14;;;;;;;;;;;;;;;22.64;43.28;102211.19;5391142;26;20267;-62
2024/04/13 11:53:40;;;;;;;;;;;;;;;22.72;43.00;102211.19;5333641;26;19937;-73
2024/04/13 11:56:07;;;;;;;;;;;;;;;22.76;43.22;102218.66;5394948;26;19930;-73
2024/04/13 11:58:33;;;;;;;;;;;;;;;22.80;43.01;102214.69;5345098;26;20509;-66
2024/04/13 12:00:59;;;;;;;;;;;;;;;22.85;42.80;102201.78;5397510;26;19937;-64
2024/04/13 12:03:25;;;;;;;;;;;;;;;22.88;42.89;102198.78;5389346;26;19936;-66
2024/04/13 12:05:51;;;;;;;;;;;;;;;22.89;42.81;102202.25;5387425;26;19929;-66
2024/04/13 12:08:19;;;;;;;;;;;;;;;22.91;42.91;102200.25;5339481;26;19969;-64
2024/04/13 12:10:47;;;;;;;;;;;;;;;23.00;42.79;102217.03;5386653;26;19941;-67
2024/04/13 12:13:17;;;;;;;;;;;;;;;23.01;42.78;102206.25;5351651;26;20250;-66
2024/04/13 12:15:44;;;;;;;;;;;;;;;23.02;42.86;102188.47;5399489;26;19940;-63
2024/04/13 12:18:10;;;;;;;;;;;;;;;23.03;42.76;102171.53;5364041;26;20608;-72
2024/04/13 12:20:43;;;;;;;;;;;;;;;23.05;42.83;102167.72;5394887;26;19929;-63
2024/04/13 12:23:16;;;;;;;;;;;;;;;23.10;42.75;102176.00;5379449;26;19995;-73
2024/04/13 12:25:43;;;;;;;;;;;;;;;23.16;42.43;102169.16;5400885;26;19936;-74
2024/04/13 12:28:09;;;;;;;;;;;;;;;23.14;42.55;102169.34;5383672;26;20596;-63
2024/04/13 12:30:35;;;;;;;;;;;;;;;23.16;42.57;102164.72;5392354;26;19994;-64
2024/04/13 12:33:01;;;;;;;;;;;;;;;23.17;42.38;102154.91;5339317;26;19933;-64